Terminal Aerodrome Forecast
Issued by NWS

Home | Current Version | Previous Version | Text Only | Print | Product List | Glossary On
Versions: 1 2 3 4 5 6 7 8 9 10 11 12 13 14
000
FTUS45 KABQ 260500
TAFGUP
TAF
KGUP 260531Z 2606/2706 VRB03KT P6SM BKN100
     FM261100 VRB03KT P6SM SCT140
     FM262300 32012KT P6SM VCTS OVC090CB
     FM270200 03005KT P6SM VCSH BKN100=

USA.gov is the U.S. government's official web portal to all federal, state and local government web resources and services.